sensor_id;sensor_type;location;lat;lon;timestamp;temperature;humidity
45906;DHT22;31619;49.008;12.106;2023-03-01T00:01:58;0.50;99.90
45906;DHT22;31619;49.008;12.106;2023-03-01T00:04:24;0.40;99.90
45906;DHT22;31619;49.008;12.106;2023-03-01T00:06:49;0.40;99.90
45906;DHT22;31619;49.008;12.106;2023-03-01T00:09:15;0.40;99.90
45906;DHT22;31619;49.008;12.106;2023-03-01T00:11:41;0.40;99.90
45906;DHT22;31619;49.008;12.106;2023-03-01T00:14:07;0.40;99.90
45906;DHT22;31619;49.008;12.106;2023-03-01T00:16:40;0.40;99.90
45906;DHT22;31619;49.008;12.106;2023-03-01T00:19:11;0.30;99.90
45906;DHT22;31619;49.008;12.106;2023-03-01T00:21:37;0.30;99.90
45906;DHT22;31619;49.008;12.106;2023-03-01T00:24:03;0.20;99.90
45906;DHT22;31619;49.008;12.106;2023-03-01T00:26:29;0.20;99.90
45906;DHT22;31619;49.008;12.106;2023-03-01T00:28:56;0.20;99.90
45906;DHT22;31619;49.008;12.106;2023-03-01T00:31:24;0.20;99.90
45906;DHT22;31619;49.008;12.106;2023-03-01T00:33:53;0.20;99.90
45906;DHT22;31619;49.008;12.106;2023-03-01T00:36:22;0.10;99.90
45906;DHT22;31619;49.008;12.106;2023-03-01T00:38:48;0.10;99.90
45906;DHT22;31619;49.008;12.106;2023-03-01T00:41:16;0.00;99.90
45906;DHT22;31619;49.008;12.106;2023-03-01T00:43:43;0.10;99.90
45906;DHT22;31619;49.008;12.106;2023-03-01T00:46:18;0.00;99.90
45906;DHT22;31619;49.008;12.106;2023-03-01T00:48:44;0.10;99.90
45906;DHT22;31619;49.008;12.106;2023-03-01T00:51:11;0.10;99.90
45906;DHT22;31619;49.008;12.106;2023-03-01T00:53:37;0.00;99.90
45906;DHT22;31619;49.008;12.106;2023-03-01T00:56:05;0.00;99.90
45906;DHT22;31619;49.008;12.106;2023-03-01T00:58:31;0.00;99.90
45906;DHT22;31619;49.008;12.106;2023-03-01T01:00:57;0.00;99.90
45906;DHT22;31619;49.008;12.106;2023-03-01T01:03:23;0.00;99.90
45906;DHT22;31619;49.008;12.106;2023-03-01T01:05:53;0.10;99.90
45906;DHT22;31619;49.008;12.106;2023-03-01T01:08:19;0.10;99.90
45906;DHT22;31619;49.008;12.106;2023-03-01T01:10:46;0.10;99.90
45906;DHT22;31619;49.008;12.106;2023-03-01T01:13:12;0.00;99.90
45906;DHT22;31619;49.008;12.106;2023-03-01T01:15:39;0.00;99.90
45906;DHT22;31619;49.008;12.106;2023-03-01T01:18:05;0.00;99.90
45906;DHT22;31619;49.008;12.106;2023-03-01T01:20:30;-0.10;99.90
45906;DHT22;31619;49.008;12.106;2023-03-01T01:22:56;-0.10;99.90
45906;DHT22;31619;49.008;12.106;2023-03-01T01:25:21;-0.10;99.90
45906;DHT22;31619;49.008;12.106;2023-03-01T01:27:50;-0.10;99.90
45906;DHT22;31619;49.008;12.106;2023-03-01T01:30:16;-0.20;99.90
45906;DHT22;31619;49.008;12.106;2023-03-01T01:32:42;-0.20;99.90
45906;DHT22;31619;49.008;12.106;2023-03-01T01:35:07;-0.20;99.90
45906;DHT22;31619;49.008;12.106;2023-03-01T01:37:34;-0.20;99.90
45906;DHT22;31619;49.008;12.106;2023-03-01T01:40:01;-0.30;99.90
45906;DHT22;31619;49.008;12.106;2023-03-01T01:42:29;-0.30;99.90
45906;DHT22;31619;49.008;12.106;2023-03-01T01:47:49;-0.40;99.90
45906;DHT22;31619;49.008;12.106;2023-03-01T01:50:17;-0.40;99.90
45906;DHT22;31619;49.008;12.106;2023-03-01T01:52:43;-0.40;99.90
45906;DHT22;31619;49.008;12.106;2023-03-01T01:55:14;-0.40;99.90
45906;DHT22;31619;49.008;12.106;2023-03-01T01:57:46;-0.40;99.90
45906;DHT22;31619;49.008;12.106;2023-03-01T02:00:19;-0.40;99.90
45906;DHT22;31619;49.008;12.106;2023-03-01T02:02:46;-0.40;99.90
45906;DHT22;31619;49.008;12.106;2023-03-01T02:07:46;-0.40;99.90
45906;DHT22;31619;49.008;12.106;2023-03-01T02:10:12;-0.40;99.90
45906;DHT22;31619;49.008;12.106;2023-03-01T02:12:38;-0.30;99.90
45906;DHT22;31619;49.008;12.106;2023-03-01T02:15:05;-0.40;99.90
45906;DHT22;31619;49.008;12.106;2023-03-01T02:17:31;-0.50;99.90
45906;DHT22;31619;49.008;12.106;2023-03-01T02:22:47;-0.60;99.90
45906;DHT22;31619;49.008;12.106;2023-03-01T02:30:17;-0.70;99.90
45906;DHT22;31619;49.008;12.106;2023-03-01T02:32:44;-0.70;99.90
45906;DHT22;31619;49.008;12.106;2023-03-01T02:35:13;-0.80;99.90
45906;DHT22;31619;49.008;12.106;2023-03-01T02:37:40;-0.80;99.90
45906;DHT22;31619;49.008;12.106;2023-03-01T02:40:09;-0.90;99.90
45906;DHT22;31619;49.008;12.106;2023-03-01T02:42:48;-0.80;99.90
45906;DHT22;31619;49.008;12.106;2023-03-01T02:45:15;-0.90;99.90
45906;DHT22;31619;49.008;12.106;2023-03-01T02:47:41;-0.90;99.90
45906;DHT22;31619;49.008;12.106;2023-03-01T02:53:07;-1.00;99.90
45906;DHT22;31619;49.008;12.106;2023-03-01T02:55:33;-1.00;99.90
45906;DHT22;31619;49.008;12.106;2023-03-01T02:58:02;-1.00;99.90
45906;DHT22;31619;49.008;12.106;2023-03-01T03:00:36;-1.00;99.90
45906;DHT22;31619;49.008;12.106;2023-03-01T03:03:06;-1.10;99.90
45906;DHT22;31619;49.008;12.106;2023-03-01T03:05:32;-1.00;99.90
45906;DHT22;31619;49.008;12.106;2023-03-01T03:08:00;-1.10;99.90
45906;DHT22;31619;49.008;12.106;2023-03-01T03:10:31;-1.10;99.90
45906;DHT22;31619;49.008;12.106;2023-03-01T03:13:02;-1.10;99.90
45906;DHT22;31619;49.008;12.106;2023-03-01T03:15:29;-1.20;99.90
45906;DHT22;31619;49.008;12.106;2023-03-01T03:17:55;-1.10;99.90
45906;DHT22;31619;49.008;12.106;2023-03-01T03:20:24;-1.20;99.90
45906;DHT22;31619;49.008;12.106;2023-03-01T03:22:52;-1.20;99.90
45906;DHT22;31619;49.008;12.106;2023-03-01T03:25:18;-1.20;99.90
45906;DHT22;31619;49.008;12.106;2023-03-01T03:27:46;-1.20;99.90
45906;DHT22;31619;49.008;12.106;2023-03-01T03:30:15;-1.20;99.90
45906;DHT22;31619;49.008;12.106;2023-03-01T03:32:42;-1.20;99.90
45906;DHT22;31619;49.008;12.106;2023-03-01T03:35:15;-1.20;99.90
45906;DHT22;31619;49.008;12.106;2023-03-01T03:37:42;-1.30;99.90
45906;DHT22;31619;49.008;12.106;2023-03-01T03:40:28;-1.30;99.90
45906;DHT22;31619;49.008;12.106;2023-03-01T03:42:54;-1.40;99.90
45906;DHT22;31619;49.008;12.106;2023-03-01T03:45:20;-1.40;99.90
45906;DHT22;31619;49.008;12.106;2023-03-01T03:47:45;-1.40;99.90
45906;DHT22;31619;49.008;12.106;2023-03-01T03:50:12;-1.40;99.90
45906;DHT22;31619;49.008;12.106;2023-03-01T03:52:39;-1.40;99.90
45906;DHT22;31619;49.008;12.106;2023-03-01T03:55:06;-1.40;99.90
45906;DHT22;31619;49.008;12.106;2023-03-01T03:57:42;-1.40;99.90
45906;DHT22;31619;49.008;12.106;2023-03-01T04:00:11;-1.40;99.90
45906;DHT22;31619;49.008;12.106;2023-03-01T04:02:41;-1.50;99.90
45906;DHT22;31619;49.008;12.106;2023-03-01T04:05:08;-1.50;99.90
45906;DHT22;31619;49.008;12.106;2023-03-01T04:07:35;-1.50;99.90
45906;DHT22;31619;49.008;12.106;2023-03-01T04:10:03;-1.50;99.90
45906;DHT22;31619;49.008;12.106;2023-03-01T04:12:29;-1.50;99.90
45906;DHT22;31619;49.008;12.106;2023-03-01T04:14:54;-1.60;99.90
45906;DHT22;31619;49.008;12.106;2023-03-01T04:17:20;-1.50;99.90
45906;DHT22;31619;49.008;12.106;2023-03-01T04:19:45;-1.60;99.90
45906;DHT22;31619;49.008;12.106;2023-03-01T04:22:14;-1.60;99.90
45906;DHT22;31619;49.008;12.106;2023-03-01T04:24:43;-1.50;99.90
45906;DHT22;31619;49.008;12.106;2023-03-01T04:27:09;-1.50;99.90
45906;DHT22;31619;49.008;12.106;2023-03-01T04:29:34;-1.60;99.90
45906;DHT22;31619;49.008;12.106;2023-03-01T04:32:00;-1.60;99.90
45906;DHT22;31619;49.008;12.106;2023-03-01T04:34:25;-1.60;99.90
45906;DHT22;31619;49.008;12.106;2023-03-01T04:36:54;-1.60;99.90
45906;DHT22;31619;49.008;12.106;2023-03-01T04:39:20;-1.60;99.90
45906;DHT22;31619;49.008;12.106;2023-03-01T04:41:46;-1.60;99.90
45906;DHT22;31619;49.008;12.106;2023-03-01T04:44:11;-1.60;99.90
45906;DHT22;31619;49.008;12.106;2023-03-01T04:46:38;-1.60;99.90
45906;DHT22;31619;49.008;12.106;2023-03-01T04:49:03;-1.60;99.90
45906;DHT22;31619;49.008;12.106;2023-03-01T04:51:30;-1.70;99.90
45906;DHT22;31619;49.008;12.106;2023-03-01T04:53:57;-1.70;99.90
45906;DHT22;31619;49.008;12.106;2023-03-01T04:56:23;-1.70;99.90
45906;DHT22;31619;49.008;12.106;2023-03-01T04:58:49;-1.70;99.90
45906;DHT22;31619;49.008;12.106;2023-03-01T05:01:17;-1.70;99.90
45906;DHT22;31619;49.008;12.106;2023-03-01T05:03:44;-1.70;99.90
45906;DHT22;31619;49.008;12.106;2023-03-01T05:06:11;-1.60;99.90
45906;DHT22;31619;49.008;12.106;2023-03-01T05:08:38;-1.70;99.90
45906;DHT22;31619;49.008;12.106;2023-03-01T05:11:04;-1.70;99.90
45906;DHT22;31619;49.008;12.106;2023-03-01T05:13:31;-1.70;99.90
45906;DHT22;31619;49.008;12.106;2023-03-01T05:15:59;-1.70;99.90
45906;DHT22;31619;49.008;12.106;2023-03-01T05:18:26;-1.70;99.90
45906;DHT22;31619;49.008;12.106;2023-03-01T05:21:00;-1.70;99.90
45906;DHT22;31619;49.008;12.106;2023-03-01T05:23:26;-1.70;99.90
45906;DHT22;31619;49.008;12.106;2023-03-01T05:25:52;-1.70;99.90
45906;DHT22;31619;49.008;12.106;2023-03-01T05:28:19;-1.70;99.90
45906;DHT22;31619;49.008;12.106;2023-03-01T05:30:46;-1.70;99.90
45906;DHT22;31619;49.008;12.106;2023-03-01T05:33:11;-1.70;99.90
45906;DHT22;31619;49.008;12.106;2023-03-01T05:35:44;-1.80;99.90
45906;DHT22;31619;49.008;12.106;2023-03-01T05:38:11;-1.80;99.90
45906;DHT22;31619;49.008;12.106;2023-03-01T05:40:41;-1.80;99.90
45906;DHT22;31619;49.008;12.106;2023-03-01T05:43:07;-1.80;99.90
45906;DHT22;31619;49.008;12.106;2023-03-01T05:45:33;-1.90;99.90
45906;DHT22;31619;49.008;12.106;2023-03-01T05:48:00;-1.80;99.90
45906;DHT22;31619;49.008;12.106;2023-03-01T05:50:28;-1.90;99.90
45906;DHT22;31619;49.008;12.106;2023-03-01T05:55:24;-1.90;99.90
45906;DHT22;31619;49.008;12.106;2023-03-01T05:57:50;-1.90;99.90
45906;DHT22;31619;49.008;12.106;2023-03-01T06:00:18;-1.90;99.90
45906;DHT22;31619;49.008;12.106;2023-03-01T06:02:45;-1.80;99.90
45906;DHT22;31619;49.008;12.106;2023-03-01T06:05:12;-1.80;99.90
45906;DHT22;31619;49.008;12.106;2023-03-01T06:07:38;-1.80;99.90
45906;DHT22;31619;49.008;12.106;2023-03-01T06:10:05;-1.80;99.90
45906;DHT22;31619;49.008;12.106;2023-03-01T06:12:35;-1.80;99.90
45906;DHT22;31619;49.008;12.106;2023-03-01T06:15:02;-1.80;99.90
45906;DHT22;31619;49.008;12.106;2023-03-01T06:17:30;-1.70;99.90
45906;DHT22;31619;49.008;12.106;2023-03-01T06:19:56;-1.70;99.90
45906;DHT22;31619;49.008;12.106;2023-03-01T06:22:22;-1.70;99.90
45906;DHT22;31619;49.008;12.106;2023-03-01T06:24:47;-1.70;99.90
45906;DHT22;31619;49.008;12.106;2023-03-01T06:27:13;-1.60;99.90
45906;DHT22;31619;49.008;12.106;2023-03-01T06:29:38;-1.60;99.90
45906;DHT22;31619;49.008;12.106;2023-03-01T06:32:04;-1.50;99.90
45906;DHT22;31619;49.008;12.106;2023-03-01T06:34:30;-1.50;99.90
45906;DHT22;31619;49.008;12.106;2023-03-01T06:36:56;-1.40;99.90
45906;DHT22;31619;49.008;12.106;2023-03-01T06:39:21;-1.40;99.90
45906;DHT22;31619;49.008;12.106;2023-03-01T06:41:47;-1.30;99.90
45906;DHT22;31619;49.008;12.106;2023-03-01T06:44:12;-1.30;99.90
45906;DHT22;31619;49.008;12.106;2023-03-01T06:46:39;-1.20;99.90
45906;DHT22;31619;49.008;12.106;2023-03-01T06:49:05;-1.20;99.90
45906;DHT22;31619;49.008;12.106;2023-03-01T06:51:37;-1.10;99.90
45906;DHT22;31619;49.008;12.106;2023-03-01T06:54:05;-1.00;99.90
45906;DHT22;31619;49.008;12.106;2023-03-01T06:56:32;-1.00;99.90
45906;DHT22;31619;49.008;12.106;2023-03-01T06:58:57;-1.00;99.90
45906;DHT22;31619;49.008;12.106;2023-03-01T07:01:23;-0.90;99.90
45906;DHT22;31619;49.008;12.106;2023-03-01T07:03:49;-0.80;99.90
45906;DHT22;31619;49.008;12.106;2023-03-01T07:06:14;-0.70;99.90
45906;DHT22;31619;49.008;12.106;2023-03-01T07:08:40;-0.60;99.90
45906;DHT22;31619;49.008;12.106;2023-03-01T07:11:06;-0.50;99.90
45906;DHT22;31619;49.008;12.106;2023-03-01T07:13:32;-0.40;99.90
45906;DHT22;31619;49.008;12.106;2023-03-01T07:15:58;-0.40;99.90
45906;DHT22;31619;49.008;12.106;2023-03-01T07:18:23;-0.30;99.90
45906;DHT22;31619;49.008;12.106;2023-03-01T07:20:49;-0.30;99.90
45906;DHT22;31619;49.008;12.106;2023-03-01T07:23:15;-0.30;99.90
45906;DHT22;31619;49.008;12.106;2023-03-01T07:25:40;-0.20;99.90
45906;DHT22;31619;49.008;12.106;2023-03-01T07:28:06;-0.20;99.90
45906;DHT22;31619;49.008;12.106;2023-03-01T07:30:32;-0.10;99.90
45906;DHT22;31619;49.008;12.106;2023-03-01T07:32:58;0.00;99.90
45906;DHT22;31619;49.008;12.106;2023-03-01T07:35:25;0.10;99.90
45906;DHT22;31619;49.008;12.106;2023-03-01T07:37:52;0.30;99.90
45906;DHT22;31619;49.008;12.106;2023-03-01T07:40:17;0.30;99.90
45906;DHT22;31619;49.008;12.106;2023-03-01T07:42:43;0.40;99.90
45906;DHT22;31619;49.008;12.106;2023-03-01T07:45:09;0.50;99.90
45906;DHT22;31619;49.008;12.106;2023-03-01T07:47:35;0.60;99.90
45906;DHT22;31619;49.008;12.106;2023-03-01T07:50:02;0.70;99.90
45906;DHT22;31619;49.008;12.106;2023-03-01T07:52:28;0.70;99.90
45906;DHT22;31619;49.008;12.106;2023-03-01T07:54:53;0.80;99.90
45906;DHT22;31619;49.008;12.106;2023-03-01T07:57:19;0.80;99.90
45906;DHT22;31619;49.008;12.106;2023-03-01T07:59:44;0.90;99.90
45906;DHT22;31619;49.008;12.106;2023-03-01T08:02:10;0.90;99.90
45906;DHT22;31619;49.008;12.106;2023-03-01T08:04:36;1.00;99.90
45906;DHT22;31619;49.008;12.106;2023-03-01T08:07:05;1.00;99.90
45906;DHT22;31619;49.008;12.106;2023-03-01T08:09:31;1.00;99.90
45906;DHT22;31619;49.008;12.106;2023-03-01T08:11:57;1.20;99.90
45906;DHT22;31619;49.008;12.106;2023-03-01T08:14:25;1.30;99.90
45906;DHT22;31619;49.008;12.106;2023-03-01T08:16:50;1.30;99.90
45906;DHT22;31619;49.008;12.106;2023-03-01T08:19:16;1.40;99.90
45906;DHT22;31619;49.008;12.106;2023-03-01T08:21:42;1.40;99.90
45906;DHT22;31619;49.008;12.106;2023-03-01T08:24:08;1.40;99.90
45906;DHT22;31619;49.008;12.106;2023-03-01T08:26:36;1.30;99.90
45906;DHT22;31619;49.008;12.106;2023-03-01T08:29:02;1.40;99.90
45906;DHT22;31619;49.008;12.106;2023-03-01T08:31:34;1.60;99.90
45906;DHT22;31619;49.008;12.106;2023-03-01T08:34:06;1.70;99.90
45906;DHT22;31619;49.008;12.106;2023-03-01T08:36:36;1.80;99.90
45906;DHT22;31619;49.008;12.106;2023-03-01T08:39:03;1.90;99.90
45906;DHT22;31619;49.008;12.106;2023-03-01T08:41:29;2.00;99.90
45906;DHT22;31619;49.008;12.106;2023-03-01T08:43:55;2.00;99.90
45906;DHT22;31619;49.008;12.106;2023-03-01T08:46:28;2.10;99.90
45906;DHT22;31619;49.008;12.106;2023-03-01T08:48:54;2.40;99.90
45906;DHT22;31619;49.008;12.106;2023-03-01T08:51:21;2.50;99.90
45906;DHT22;31619;49.008;12.106;2023-03-01T08:53:47;2.60;99.90
45906;DHT22;31619;49.008;12.106;2023-03-01T08:56:14;2.70;99.90
45906;DHT22;31619;49.008;12.106;2023-03-01T08:58:43;2.80;99.90
45906;DHT22;31619;49.008;12.106;2023-03-01T09:01:13;2.90;99.90
45906;DHT22;31619;49.008;12.106;2023-03-01T09:03:40;3.00;99.90
45906;DHT22;31619;49.008;12.106;2023-03-01T09:06:07;3.10;99.90
45906;DHT22;31619;49.008;12.106;2023-03-01T09:08:40;3.10;99.90
45906;DHT22;31619;49.008;12.106;2023-03-01T09:11:08;3.20;99.90
45906;DHT22;31619;49.008;12.106;2023-03-01T09:13:34;3.30;99.90
45906;DHT22;31619;49.008;12.106;2023-03-01T09:16:05;3.40;99.90
45906;DHT22;31619;49.008;12.106;2023-03-01T09:18:31;3.70;99.90
45906;DHT22;31619;49.008;12.106;2023-03-01T09:21:05;3.90;99.90
45906;DHT22;31619;49.008;12.106;2023-03-01T09:23:35;4.20;99.90
45906;DHT22;31619;49.008;12.106;2023-03-01T09:26:08;4.40;99.90
45906;DHT22;31619;49.008;12.106;2023-03-01T09:28:35;4.60;99.00
45906;DHT22;31619;49.008;12.106;2023-03-01T09:31:02;5.20;98.70
45906;DHT22;31619;49.008;12.106;2023-03-01T09:33:30;5.60;97.50
45906;DHT22;31619;49.008;12.106;2023-03-01T09:36:06;6.10;96.00
45906;DHT22;31619;49.008;12.106;2023-03-01T09:38:33;7.50;92.90
45906;DHT22;31619;49.008;12.106;2023-03-01T09:41:00;9.50;89.20
45906;DHT22;31619;49.008;12.106;2023-03-01T09:43:43;12.00;79.20
45906;DHT22;31619;49.008;12.106;2023-03-01T09:46:12;14.40;66.20
45906;DHT22;31619;49.008;12.106;2023-03-01T09:48:45;16.00;57.20
45906;DHT22;31619;49.008;12.106;2023-03-01T09:51:22;17.40;53.70
45906;DHT22;31619;49.008;12.106;2023-03-01T09:53:49;18.60;49.80
45906;DHT22;31619;49.008;12.106;2023-03-01T09:56:41;19.30;48.10
45906;DHT22;31619;49.008;12.106;2023-03-01T09:59:30;19.90;46.20
45906;DHT22;31619;49.008;12.106;2023-03-01T10:05:05;21.40;43.10
45906;DHT22;31619;49.008;12.106;2023-03-01T10:10:38;22.10;42.20
45906;DHT22;31619;49.008;12.106;2023-03-01T10:19:03;22.60;39.70
45906;DHT22;31619;49.008;12.106;2023-03-01T10:21:30;22.80;40.60
45906;DHT22;31619;49.008;12.106;2023-03-01T10:24:15;23.60;39.40
45906;DHT22;31619;49.008;12.106;2023-03-01T10:26:59;24.20;38.00
45906;DHT22;31619;49.008;12.106;2023-03-01T10:32:15;25.00;37.30
45906;DHT22;31619;49.008;12.106;2023-03-01T10:34:41;24.40;36.50
45906;DHT22;31619;49.008;12.106;2023-03-01T10:37:11;23.70;37.90
45906;DHT22;31619;49.008;12.106;2023-03-01T10:42:30;24.70;36.50
45906;DHT22;31619;49.008;12.106;2023-03-01T10:44:57;24.60;36.60
45906;DHT22;31619;49.008;12.106;2023-03-01T10:47:25;25.10;36.60
45906;DHT22;31619;49.008;12.106;2023-03-01T10:49:57;25.20;36.00
45906;DHT22;31619;49.008;12.106;2023-03-01T10:52:26;25.20;36.60
45906;DHT22;31619;49.008;12.106;2023-03-01T10:57:38;25.20;36.30
45906;DHT22;31619;49.008;12.106;2023-03-01T11:00:25;25.30;36.10
45906;DHT22;31619;49.008;12.106;2023-03-01T11:03:02;25.10;36.30
45906;DHT22;31619;49.008;12.106;2023-03-01T11:05:28;24.90;36.50
45906;DHT22;31619;49.008;12.106;2023-03-01T11:07:59;25.60;35.60
45906;DHT22;31619;49.008;12.106;2023-03-01T11:10:28;26.40;37.40
45906;DHT22;31619;49.008;12.106;2023-03-01T11:13:26;26.80;34.60
45906;DHT22;31619;49.008;12.106;2023-03-01T11:16:06;26.40;34.90
45906;DHT22;31619;49.008;12.106;2023-03-01T11:18:33;26.40;34.80
45906;DHT22;31619;49.008;12.106;2023-03-01T11:21:00;27.10;34.80
45906;DHT22;31619;49.008;12.106;2023-03-01T11:23:29;27.20;36.30
45906;DHT22;31619;49.008;12.106;2023-03-01T11:26:01;27.20;34.10
45906;DHT22;31619;49.008;12.106;2023-03-01T11:28:29;27.40;33.40
45906;DHT22;31619;49.008;12.106;2023-03-01T11:33:48;28.30;33.30
45906;DHT22;31619;49.008;12.106;2023-03-01T11:39:32;28.60;32.90
45906;DHT22;31619;49.008;12.106;2023-03-01T11:44:36;29.60;31.80
45906;DHT22;31619;49.008;12.106;2023-03-01T11:55:36;29.40;31.80
45906;DHT22;31619;49.008;12.106;2023-03-01T12:04:32;29.70;32.10
45906;DHT22;31619;49.008;12.106;2023-03-01T12:07:18;30.50;31.40
45906;DHT22;31619;49.008;12.106;2023-03-01T12:15:56;30.50;31.20
45906;DHT22;31619;49.008;12.106;2023-03-01T12:24:14;30.60;31.00
45906;DHT22;31619;49.008;12.106;2023-03-01T12:29:42;30.40;31.50
45906;DHT22;31619;49.008;12.106;2023-03-01T12:37:53;30.70;31.50
45906;DHT22;31619;49.008;12.106;2023-03-01T12:40:29;31.10;31.20
45906;DHT22;31619;49.008;12.106;2023-03-01T12:49:17;29.10;32.40
45906;DHT22;31619;49.008;12.106;2023-03-01T12:51:59;29.10;32.30
45906;DHT22;31619;49.008;12.106;2023-03-01T12:54:31;28.90;33.00
45906;DHT22;31619;49.008;12.106;2023-03-01T12:57:02;28.60;33.10
45906;DHT22;31619;49.008;12.106;2023-03-01T13:02:47;28.10;33.80
45906;DHT22;31619;49.008;12.106;2023-03-01T13:08:56;27.10;34.70
45906;DHT22;31619;49.008;12.106;2023-03-01T13:11:19;26.30;35.20
45906;DHT22;31619;49.008;12.106;2023-03-01T13:13:46;26.00;35.50
45906;DHT22;31619;49.008;12.106;2023-03-01T13:19:20;24.80;37.10
45906;DHT22;31619;49.008;12.106;2023-03-01T13:21:47;23.70;37.60
45906;DHT22;31619;49.008;12.106;2023-03-01T13:24:37;23.50;38.10
45906;DHT22;31619;49.008;12.106;2023-03-01T13:29:50;23.10;38.60
45906;DHT22;31619;49.008;12.106;2023-03-01T13:32:29;22.80;38.80
45906;DHT22;31619;49.008;12.106;2023-03-01T13:35:40;22.70;39.30
45906;DHT22;31619;49.008;12.106;2023-03-01T13:37:47;22.30;39.50
45906;DHT22;31619;49.008;12.106;2023-03-01T13:42:43;21.90;40.70
45906;DHT22;31619;49.008;12.106;2023-03-01T13:48:04;22.30;40.50
45906;DHT22;31619;49.008;12.106;2023-03-01T13:50:38;22.70;40.30
45906;DHT22;31619;49.008;12.106;2023-03-01T13:53:14;22.50;40.20
45906;DHT22;31619;49.008;12.106;2023-03-01T13:55:44;21.50;41.10
45906;DHT22;31619;49.008;12.106;2023-03-01T14:00:46;20.60;42.20
45906;DHT22;31619;49.008;12.106;2023-03-01T14:03:17;20.60;42.20
45906;DHT22;31619;49.008;12.106;2023-03-01T14:08:24;21.30;41.40
45906;DHT22;31619;49.008;12.106;2023-03-01T14:19:29;23.20;40.30
45906;DHT22;31619;49.008;12.106;2023-03-01T14:22:22;23.50;40.00
45906;DHT22;31619;49.008;12.106;2023-03-01T14:27:50;24.50;38.80
45906;DHT22;31619;49.008;12.106;2023-03-01T14:30:34;25.00;38.60
45906;DHT22;31619;49.008;12.106;2023-03-01T14:33:05;25.50;38.20
45906;DHT22;31619;49.008;12.106;2023-03-01T14:35:34;25.60;37.90
45906;DHT22;31619;49.008;12.106;2023-03-01T14:38:01;26.30;37.40
45906;DHT22;31619;49.008;12.106;2023-03-01T14:40:33;25.40;37.30
45906;DHT22;31619;49.008;12.106;2023-03-01T14:43:01;24.10;38.60
45906;DHT22;31619;49.008;12.106;2023-03-01T14:45:33;23.10;39.80
45906;DHT22;31619;49.008;12.106;2023-03-01T14:48:01;22.50;40.60
45906;DHT22;31619;49.008;12.106;2023-03-01T14:50:31;22.50;41.10
45906;DHT22;31619;49.008;12.106;2023-03-01T14:53:02;22.70;40.70
45906;DHT22;31619;49.008;12.106;2023-03-01T14:55:33;22.60;41.00
45906;DHT22;31619;49.008;12.106;2023-03-01T14:58:03;23.50;40.80
45906;DHT22;31619;49.008;12.106;2023-03-01T15:00:32;24.20;39.50
45906;DHT22;31619;49.008;12.106;2023-03-01T15:03:08;24.50;39.10
45906;DHT22;31619;49.008;12.106;2023-03-01T15:05:39;24.50;39.20
45906;DHT22;31619;49.008;12.106;2023-03-01T15:08:06;24.40;39.20
45906;DHT22;31619;49.008;12.106;2023-03-01T15:10:34;23.90;39.60
45906;DHT22;31619;49.008;12.106;2023-03-01T15:13:19;24.30;39.60
45906;DHT22;31619;49.008;12.106;2023-03-01T15:15:47;24.60;39.20
45906;DHT22;31619;49.008;12.106;2023-03-01T15:18:21;24.80;39.10
45906;DHT22;31619;49.008;12.106;2023-03-01T15:20:49;24.80;39.20
45906;DHT22;31619;49.008;12.106;2023-03-01T15:23:28;25.50;38.70
45906;DHT22;31619;49.008;12.106;2023-03-01T15:25:55;26.10;38.00
45906;DHT22;31619;49.008;12.106;2023-03-01T15:28:37;25.70;38.00
45906;DHT22;31619;49.008;12.106;2023-03-01T15:31:17;24.80;38.80
45906;DHT22;31619;49.008;12.106;2023-03-01T15:33:43;24.50;39.30
45906;DHT22;31619;49.008;12.106;2023-03-01T15:36:45;24.20;39.30
45906;DHT22;31619;49.008;12.106;2023-03-01T15:39:31;23.70;39.40
45906;DHT22;31619;49.008;12.106;2023-03-01T15:42:23;22.70;40.50
45906;DHT22;31619;49.008;12.106;2023-03-01T15:47:39;22.20;40.90
45906;DHT22;31619;49.008;12.106;2023-03-01T15:50:17;21.90;41.40
45906;DHT22;31619;49.008;12.106;2023-03-01T15:52:43;21.50;41.90
45906;DHT22;31619;49.008;12.106;2023-03-01T15:55:35;21.40;42.20
45906;DHT22;31619;49.008;12.106;2023-03-01T15:58:13;20.40;43.20
45906;DHT22;31619;49.008;12.106;2023-03-01T16:00:39;19.90;43.70
45906;DHT22;31619;49.008;12.106;2023-03-01T16:03:06;19.30;44.40
45906;DHT22;31619;49.008;12.106;2023-03-01T16:05:33;18.40;45.30
45906;DHT22;31619;49.008;12.106;2023-03-01T16:08:03;17.20;46.70
45906;DHT22;31619;49.008;12.106;2023-03-01T16:10:29;16.20;48.10
45906;DHT22;31619;49.008;12.106;2023-03-01T16:12:55;15.20;49.90
45906;DHT22;31619;49.008;12.106;2023-03-01T16:15:24;14.20;51.30
45906;DHT22;31619;49.008;12.106;2023-03-01T16:17:50;13.30;53.00
45906;DHT22;31619;49.008;12.106;2023-03-01T16:20:17;12.50;55.00
45906;DHT22;31619;49.008;12.106;2023-03-01T16:22:44;11.70;56.60
45906;DHT22;31619;49.008;12.106;2023-03-01T16:25:11;10.90;58.30
45906;DHT22;31619;49.008;12.106;2023-03-01T16:27:37;10.40;59.80
45906;DHT22;31619;49.008;12.106;2023-03-01T16:30:05;10.00;61.10
45906;DHT22;31619;49.008;12.106;2023-03-01T16:32:31;9.70;63.30
45906;DHT22;31619;49.008;12.106;2023-03-01T16:34:57;9.40;64.50
45906;DHT22;31619;49.008;12.106;2023-03-01T16:37:22;9.10;66.10
45906;DHT22;31619;49.008;12.106;2023-03-01T16:39:48;8.70;67.50
45906;DHT22;31619;49.008;12.106;2023-03-01T16:42:17;8.40;68.20
45906;DHT22;31619;49.008;12.106;2023-03-01T16:44:43;8.20;69.40
45906;DHT22;31619;49.008;12.106;2023-03-01T16:47:08;8.00;70.80
45906;DHT22;31619;49.008;12.106;2023-03-01T16:49:34;7.70;72.00
45906;DHT22;31619;49.008;12.106;2023-03-01T16:51:59;7.60;73.20
45906;DHT22;31619;49.008;12.106;2023-03-01T16:54:25;7.50;73.70
45906;DHT22;31619;49.008;12.106;2023-03-01T16:56:51;7.30;74.60
45906;DHT22;31619;49.008;12.106;2023-03-01T16:59:16;7.10;75.50
45906;DHT22;31619;49.008;12.106;2023-03-01T17:01:44;7.00;76.30
45906;DHT22;31619;49.008;12.106;2023-03-01T17:04:13;6.80;77.00
45906;DHT22;31619;49.008;12.106;2023-03-01T17:06:38;6.70;78.00
45906;DHT22;31619;49.008;12.106;2023-03-01T17:09:04;6.60;78.70
45906;DHT22;31619;49.008;12.106;2023-03-01T17:11:30;6.50;80.00
45906;DHT22;31619;49.008;12.106;2023-03-01T17:13:55;6.30;81.10
45906;DHT22;31619;49.008;12.106;2023-03-01T17:16:21;6.20;81.60
45906;DHT22;31619;49.008;12.106;2023-03-01T17:18:47;6.10;82.80
45906;DHT22;31619;49.008;12.106;2023-03-01T17:21:14;6.00;83.90
45906;DHT22;31619;49.008;12.106;2023-03-01T17:23:42;5.90;84.70
45906;DHT22;31619;49.008;12.106;2023-03-01T17:26:07;5.80;85.50
45906;DHT22;31619;49.008;12.106;2023-03-01T17:28:34;5.70;86.50
45906;DHT22;31619;49.008;12.106;2023-03-01T17:31:01;5.70;87.50
45906;DHT22;31619;49.008;12.106;2023-03-01T17:33:27;5.60;87.70
45906;DHT22;31619;49.008;12.106;2023-03-01T17:35:55;5.60;88.40
45906;DHT22;31619;49.008;12.106;2023-03-01T17:38:21;5.60;89.40